首页
METAR-TAF:

METAR-TAF

机场 :

金奈, 印度

金奈国际机场

纬度: 13-00N, 经度: 080-11E, 海拔: 10米

当前天气观测

该预报发布于11分钟前的05:30 UTC
风速8节,风向北转东北
温度 30°C
湿度 59%
气压 1015 hPa
能見度: 8000
少量云层高于2000英尺

METAR: VOMM 250530Z 03008KT 8000 FEW020 30/21 Q1015 NOSIG

时间: 11:11 (05:41 UTC)

预报

该预报发布于41分钟前的05:00 UTC
预报有效从25日的 06点(UTC)到 26日的 12点(UTC)
风速10节,风向东转东北
能見度: 6000
少量云层高于2000英尺
成为
从 26日的 00点(UTC)到 26日的 01点(UTC)
风速节,风向
能見度: 3000
轻雾
成为
从 26日的 02点(UTC)到 26日的 03点(UTC)
风速5节,风向西北
能見度: 5000
成为
从 26日的 04点(UTC)到 26日的 05点(UTC)
风速10节,风向东转东北
能見度: 6000

TAF: VOMM 250500Z 2506/2612 07010KT 6000 FEW020 BECMG 2600/2601 00000KT 3000 BR BECMG 2602/2603 32005KT 5000 HZ BECMG 2604/2605 07010KT 6000

超过4000个机场的气象观测和天气预报(METAR&TAF报告)。

可查询的气象台以黄色和红色小点在地图上表示。

将鼠标移到小点上方,可查看气象台名称。

然后点击查看天气观测和预报。

如需切换地图:点击带黑十字的绿色按钮放大地图;点击带横线的绿色按钮缩小地图;或者点击绿色箭头查看邻近地区的地图。


METAR-TAF: